sensor_id;sensor_type;location;lat;lon;timestamp;temperature;humidity
4910;DHT22;2470;49.868;8.660;2022-08-19T00:01:53;23.20;99.90
4910;DHT22;2470;49.868;8.660;2022-08-19T00:04:22;23.20;99.90
4910;DHT22;2470;49.868;8.660;2022-08-19T00:06:48;23.20;99.90
4910;DHT22;2470;49.868;8.660;2022-08-19T00:09:17;23.20;99.90
4910;DHT22;2470;49.868;8.660;2022-08-19T00:11:44;23.30;99.90
4910;DHT22;2470;49.868;8.660;2022-08-19T00:14:12;23.30;99.90
4910;DHT22;2470;49.868;8.660;2022-08-19T00:16:39;23.30;99.90
4910;DHT22;2470;49.868;8.660;2022-08-19T00:19:07;23.30;99.90
4910;DHT22;2470;49.868;8.660;2022-08-19T00:21:33;23.30;99.90
4910;DHT22;2470;49.868;8.660;2022-08-19T00:24:03;23.30;99.90
4910;DHT22;2470;49.868;8.660;2022-08-19T00:26:29;23.30;99.90
4910;DHT22;2470;49.868;8.660;2022-08-19T00:28:55;23.30;99.90
4910;DHT22;2470;49.868;8.660;2022-08-19T00:31:20;23.30;99.90
4910;DHT22;2470;49.868;8.660;2022-08-19T00:33:46;23.20;99.90
4910;DHT22;2470;49.868;8.660;2022-08-19T00:36:13;23.20;99.90
4910;DHT22;2470;49.868;8.660;2022-08-19T00:38:39;23.20;99.90
4910;DHT22;2470;49.868;8.660;2022-08-19T00:41:13;23.20;99.90
4910;DHT22;2470;49.868;8.660;2022-08-19T00:43:39;23.20;99.90
4910;DHT22;2470;49.868;8.660;2022-08-19T00:46:05;23.20;99.90
4910;DHT22;2470;49.868;8.660;2022-08-19T00:48:32;23.20;99.90
4910;DHT22;2470;49.868;8.660;2022-08-19T00:50:59;23.20;99.90
4910;DHT22;2470;49.868;8.660;2022-08-19T00:53:27;23.20;99.90
4910;DHT22;2470;49.868;8.660;2022-08-19T00:55:56;23.20;99.90
4910;DHT22;2470;49.868;8.660;2022-08-19T00:58:26;23.20;99.90
4910;DHT22;2470;49.868;8.660;2022-08-19T01:00:52;23.20;99.90
4910;DHT22;2470;49.868;8.660;2022-08-19T01:03:19;23.20;99.90
4910;DHT22;2470;49.868;8.660;2022-08-19T01:05:46;23.10;99.90
4910;DHT22;2470;49.868;8.660;2022-08-19T01:08:14;23.10;99.90
4910;DHT22;2470;49.868;8.660;2022-08-19T01:10:43;23.10;99.90
4910;DHT22;2470;49.868;8.660;2022-08-19T01:13:10;23.10;99.90
4910;DHT22;2470;49.868;8.660;2022-08-19T01:15:45;23.10;99.90
4910;DHT22;2470;49.868;8.660;2022-08-19T01:18:13;23.10;99.90
4910;DHT22;2470;49.868;8.660;2022-08-19T01:20:41;23.10;99.90
4910;DHT22;2470;49.868;8.660;2022-08-19T01:23:07;23.10;99.90
4910;DHT22;2470;49.868;8.660;2022-08-19T01:25:43;23.10;99.90
4910;DHT22;2470;49.868;8.660;2022-08-19T01:28:16;23.10;99.90
4910;DHT22;2470;49.868;8.660;2022-08-19T01:30:43;23.10;99.90
4910;DHT22;2470;49.868;8.660;2022-08-19T01:33:09;23.10;99.90
4910;DHT22;2470;49.868;8.660;2022-08-19T01:35:35;23.20;99.90
4910;DHT22;2470;49.868;8.660;2022-08-19T01:38:03;23.20;99.90
4910;DHT22;2470;49.868;8.660;2022-08-19T01:40:35;23.20;99.90
4910;DHT22;2470;49.868;8.660;2022-08-19T01:43:02;23.20;99.90
4910;DHT22;2470;49.868;8.660;2022-08-19T01:45:31;23.10;99.90
4910;DHT22;2470;49.868;8.660;2022-08-19T01:47:57;23.10;99.90
4910;DHT22;2470;49.868;8.660;2022-08-19T01:50:23;23.10;99.90
4910;DHT22;2470;49.868;8.660;2022-08-19T01:52:49;23.10;99.90
4910;DHT22;2470;49.868;8.660;2022-08-19T01:55:19;23.00;99.90
4910;DHT22;2470;49.868;8.660;2022-08-19T01:57:52;23.00;99.90
4910;DHT22;2470;49.868;8.660;2022-08-19T02:00:22;23.00;99.90
4910;DHT22;2470;49.868;8.660;2022-08-19T02:02:48;23.00;99.90
4910;DHT22;2470;49.868;8.660;2022-08-19T02:05:13;23.00;99.90
4910;DHT22;2470;49.868;8.660;2022-08-19T02:07:40;23.00;99.90
4910;DHT22;2470;49.868;8.660;2022-08-19T02:10:10;23.00;99.90
4910;DHT22;2470;49.868;8.660;2022-08-19T02:12:36;23.00;99.90
4910;DHT22;2470;49.868;8.660;2022-08-19T02:15:03;23.00;99.90
4910;DHT22;2470;49.868;8.660;2022-08-19T02:17:29;23.00;99.90
4910;DHT22;2470;49.868;8.660;2022-08-19T02:19:55;23.00;99.90
4910;DHT22;2470;49.868;8.660;2022-08-19T02:22:22;23.00;99.90
4910;DHT22;2470;49.868;8.660;2022-08-19T02:24:48;23.00;99.90
4910;DHT22;2470;49.868;8.660;2022-08-19T02:27:14;22.90;99.90
4910;DHT22;2470;49.868;8.660;2022-08-19T02:29:40;22.80;99.90
4910;DHT22;2470;49.868;8.660;2022-08-19T02:32:06;22.80;99.90
4910;DHT22;2470;49.868;8.660;2022-08-19T02:34:32;22.80;99.90
4910;DHT22;2470;49.868;8.660;2022-08-19T02:36:57;22.80;99.90
4910;DHT22;2470;49.868;8.660;2022-08-19T02:39:23;22.80;99.90
4910;DHT22;2470;49.868;8.660;2022-08-19T02:41:48;22.80;99.90
4910;DHT22;2470;49.868;8.660;2022-08-19T02:44:15;22.80;99.90
4910;DHT22;2470;49.868;8.660;2022-08-19T02:46:40;22.80;99.90
4910;DHT22;2470;49.868;8.660;2022-08-19T02:49:07;22.80;99.90
4910;DHT22;2470;49.868;8.660;2022-08-19T02:51:35;22.80;99.90
4910;DHT22;2470;49.868;8.660;2022-08-19T02:54:02;22.80;99.90
4910;DHT22;2470;49.868;8.660;2022-08-19T02:56:29;22.70;99.90
4910;DHT22;2470;49.868;8.660;2022-08-19T02:58:56;22.70;99.90
4910;DHT22;2470;49.868;8.660;2022-08-19T03:01:23;22.70;99.90
4910;DHT22;2470;49.868;8.660;2022-08-19T03:03:49;22.70;99.90
4910;DHT22;2470;49.868;8.660;2022-08-19T03:06:16;22.70;99.90
4910;DHT22;2470;49.868;8.660;2022-08-19T03:08:44;22.70;99.90
4910;DHT22;2470;49.868;8.660;2022-08-19T03:11:20;22.70;99.90
4910;DHT22;2470;49.868;8.660;2022-08-19T03:13:47;22.70;99.90
4910;DHT22;2470;49.868;8.660;2022-08-19T03:16:14;22.70;99.90
4910;DHT22;2470;49.868;8.660;2022-08-19T03:18:41;22.60;99.90
4910;DHT22;2470;49.868;8.660;2022-08-19T03:21:07;22.60;99.90
4910;DHT22;2470;49.868;8.660;2022-08-19T03:23:33;22.60;99.90
4910;DHT22;2470;49.868;8.660;2022-08-19T03:25:59;22.50;99.90
4910;DHT22;2470;49.868;8.660;2022-08-19T03:28:30;22.50;99.90
4910;DHT22;2470;49.868;8.660;2022-08-19T03:31:01;22.60;99.90
4910;DHT22;2470;49.868;8.660;2022-08-19T03:33:29;22.60;99.90
4910;DHT22;2470;49.868;8.660;2022-08-19T03:36:09;22.60;99.90
4910;DHT22;2470;49.868;8.660;2022-08-19T03:38:39;22.60;99.90
4910;DHT22;2470;49.868;8.660;2022-08-19T03:41:07;22.60;99.90
4910;DHT22;2470;49.868;8.660;2022-08-19T03:43:35;22.60;99.90
4910;DHT22;2470;49.868;8.660;2022-08-19T03:46:07;22.60;99.90
4910;DHT22;2470;49.868;8.660;2022-08-19T03:48:34;22.60;99.90
4910;DHT22;2470;49.868;8.660;2022-08-19T03:51:00;22.60;99.90
4910;DHT22;2470;49.868;8.660;2022-08-19T03:53:28;22.50;99.90
4910;DHT22;2470;49.868;8.660;2022-08-19T03:55:55;22.60;99.90
4910;DHT22;2470;49.868;8.660;2022-08-19T03:58:21;22.50;99.90
4910;DHT22;2470;49.868;8.660;2022-08-19T04:00:47;22.60;99.90
4910;DHT22;2470;49.868;8.660;2022-08-19T04:03:14;22.60;99.90
4910;DHT22;2470;49.868;8.660;2022-08-19T04:05:39;22.60;99.90
4910;DHT22;2470;49.868;8.660;2022-08-19T04:08:05;22.60;99.90
4910;DHT22;2470;49.868;8.660;2022-08-19T04:10:35;22.50;99.90
4910;DHT22;2470;49.868;8.660;2022-08-19T04:13:00;22.50;99.90
4910;DHT22;2470;49.868;8.660;2022-08-19T04:15:26;22.50;99.90
4910;DHT22;2470;49.868;8.660;2022-08-19T04:17:52;22.50;99.90
4910;DHT22;2470;49.868;8.660;2022-08-19T04:20:18;22.50;99.90
4910;DHT22;2470;49.868;8.660;2022-08-19T04:22:43;22.50;99.90
4910;DHT22;2470;49.868;8.660;2022-08-19T04:25:09;22.50;99.90
4910;DHT22;2470;49.868;8.660;2022-08-19T04:27:35;22.60;99.90
4910;DHT22;2470;49.868;8.660;2022-08-19T04:30:00;22.60;99.90
4910;DHT22;2470;49.868;8.660;2022-08-19T04:32:26;22.60;99.90
4910;DHT22;2470;49.868;8.660;2022-08-19T04:34:52;22.60;99.90
4910;DHT22;2470;49.868;8.660;2022-08-19T04:37:18;22.60;99.90
4910;DHT22;2470;49.868;8.660;2022-08-19T04:39:44;22.60;99.90
4910;DHT22;2470;49.868;8.660;2022-08-19T04:42:28;22.50;99.90
4910;DHT22;2470;49.868;8.660;2022-08-19T04:45:08;22.50;99.90
4910;DHT22;2470;49.868;8.660;2022-08-19T04:47:36;22.50;99.90
4910;DHT22;2470;49.868;8.660;2022-08-19T04:50:02;22.50;99.90
4910;DHT22;2470;49.868;8.660;2022-08-19T04:52:28;22.50;99.90
4910;DHT22;2470;49.868;8.660;2022-08-19T04:54:57;22.50;99.90
4910;DHT22;2470;49.868;8.660;2022-08-19T04:57:23;22.50;99.90
4910;DHT22;2470;49.868;8.660;2022-08-19T04:59:49;22.50;99.90
4910;DHT22;2470;49.868;8.660;2022-08-19T05:02:14;22.50;99.90
4910;DHT22;2470;49.868;8.660;2022-08-19T05:04:40;22.50;99.90
4910;DHT22;2470;49.868;8.660;2022-08-19T05:07:07;22.60;99.90
4910;DHT22;2470;49.868;8.660;2022-08-19T05:09:33;22.60;99.90
4910;DHT22;2470;49.868;8.660;2022-08-19T05:11:59;22.60;99.90
4910;DHT22;2470;49.868;8.660;2022-08-19T05:14:25;22.60;99.90
4910;DHT22;2470;49.868;8.660;2022-08-19T05:16:50;22.70;99.90
4910;DHT22;2470;49.868;8.660;2022-08-19T05:19:16;22.60;99.90
4910;DHT22;2470;49.868;8.660;2022-08-19T05:22:00;22.60;99.90
4910;DHT22;2470;49.868;8.660;2022-08-19T05:24:44;22.60;99.90
4910;DHT22;2470;49.868;8.660;2022-08-19T05:27:10;22.70;99.90
4910;DHT22;2470;49.868;8.660;2022-08-19T05:29:36;22.60;99.90
4910;DHT22;2470;49.868;8.660;2022-08-19T05:32:03;22.70;99.90
4910;DHT22;2470;49.868;8.660;2022-08-19T05:34:31;22.70;99.90
4910;DHT22;2470;49.868;8.660;2022-08-19T05:36:59;22.80;99.90
4910;DHT22;2470;49.868;8.660;2022-08-19T05:39:28;22.80;99.90
4910;DHT22;2470;49.868;8.660;2022-08-19T05:42:00;22.80;99.90
4910;DHT22;2470;49.868;8.660;2022-08-19T05:44:28;22.80;99.90
4910;DHT22;2470;49.868;8.660;2022-08-19T05:46:57;22.80;99.90
4910;DHT22;2470;49.868;8.660;2022-08-19T05:49:23;22.80;99.90
4910;DHT22;2470;49.868;8.660;2022-08-19T05:51:50;22.90;99.90
4910;DHT22;2470;49.868;8.660;2022-08-19T05:54:16;22.90;99.90
4910;DHT22;2470;49.868;8.660;2022-08-19T05:56:42;22.90;99.90
4910;DHT22;2470;49.868;8.660;2022-08-19T05:59:09;22.90;99.90
4910;DHT22;2470;49.868;8.660;2022-08-19T06:01:41;22.90;99.90
4910;DHT22;2470;49.868;8.660;2022-08-19T06:04:07;23.00;99.90
4910;DHT22;2470;49.868;8.660;2022-08-19T06:06:34;23.10;99.90
4910;DHT22;2470;49.868;8.660;2022-08-19T06:09:05;23.20;99.90
4910;DHT22;2470;49.868;8.660;2022-08-19T06:11:45;23.30;99.90
4910;DHT22;2470;49.868;8.660;2022-08-19T06:14:15;23.40;99.90
4910;DHT22;2470;49.868;8.660;2022-08-19T06:16:41;23.50;99.90
4910;DHT22;2470;49.868;8.660;2022-08-19T06:19:12;23.50;99.90
4910;DHT22;2470;49.868;8.660;2022-08-19T06:21:40;23.50;99.90
4910;DHT22;2470;49.868;8.660;2022-08-19T06:24:08;23.50;99.90
4910;DHT22;2470;49.868;8.660;2022-08-19T06:26:36;23.50;99.90
4910;DHT22;2470;49.868;8.660;2022-08-19T06:29:04;23.60;99.90
4910;DHT22;2470;49.868;8.660;2022-08-19T06:31:32;23.70;99.90
4910;DHT22;2470;49.868;8.660;2022-08-19T06:34:03;23.80;99.90
4910;DHT22;2470;49.868;8.660;2022-08-19T06:36:33;23.80;99.90
4910;DHT22;2470;49.868;8.660;2022-08-19T06:39:08;23.80;99.90
4910;DHT22;2470;49.868;8.660;2022-08-19T06:41:36;23.90;99.90
4910;DHT22;2470;49.868;8.660;2022-08-19T06:44:02;23.90;99.90
4910;DHT22;2470;49.868;8.660;2022-08-19T06:46:28;24.00;99.90
4910;DHT22;2470;49.868;8.660;2022-08-19T06:48:54;23.90;99.90
4910;DHT22;2470;49.868;8.660;2022-08-19T06:51:20;23.90;99.90
4910;DHT22;2470;49.868;8.660;2022-08-19T06:53:48;23.90;99.90
4910;DHT22;2470;49.868;8.660;2022-08-19T06:56:16;24.00;99.90
4910;DHT22;2470;49.868;8.660;2022-08-19T06:58:42;24.00;99.90
4910;DHT22;2470;49.868;8.660;2022-08-19T07:01:08;24.10;99.90
4910;DHT22;2470;49.868;8.660;2022-08-19T07:03:36;24.00;99.90
4910;DHT22;2470;49.868;8.660;2022-08-19T07:06:14;24.00;99.90
4910;DHT22;2470;49.868;8.660;2022-08-19T07:08:46;23.90;99.90
4910;DHT22;2470;49.868;8.660;2022-08-19T07:11:16;23.90;99.90
4910;DHT22;2470;49.868;8.660;2022-08-19T07:13:43;23.90;99.90
4910;DHT22;2470;49.868;8.660;2022-08-19T07:16:13;23.90;99.90
4910;DHT22;2470;49.868;8.660;2022-08-19T07:18:40;23.90;99.90
4910;DHT22;2470;49.868;8.660;2022-08-19T07:21:11;24.00;99.90
4910;DHT22;2470;49.868;8.660;2022-08-19T07:23:38;24.10;99.90
4910;DHT22;2470;49.868;8.660;2022-08-19T07:26:09;24.10;99.90
4910;DHT22;2470;49.868;8.660;2022-08-19T07:28:35;24.00;99.90
4910;DHT22;2470;49.868;8.660;2022-08-19T07:31:05;24.10;99.90
4910;DHT22;2470;49.868;8.660;2022-08-19T07:33:31;24.20;99.90
4910;DHT22;2470;49.868;8.660;2022-08-19T07:35:58;24.30;99.90
4910;DHT22;2470;49.868;8.660;2022-08-19T07:38:24;24.40;99.90
4910;DHT22;2470;49.868;8.660;2022-08-19T07:40:50;24.60;99.90
4910;DHT22;2470;49.868;8.660;2022-08-19T07:43:16;24.60;99.90
4910;DHT22;2470;49.868;8.660;2022-08-19T07:45:48;24.70;99.90
4910;DHT22;2470;49.868;8.660;2022-08-19T07:48:13;24.70;99.90
4910;DHT22;2470;49.868;8.660;2022-08-19T07:50:39;24.80;99.90
4910;DHT22;2470;49.868;8.660;2022-08-19T07:53:05;24.90;99.90
4910;DHT22;2470;49.868;8.660;2022-08-19T07:55:31;25.00;99.90
4910;DHT22;2470;49.868;8.660;2022-08-19T07:57:57;25.10;99.90
4910;DHT22;2470;49.868;8.660;2022-08-19T08:00:22;25.10;99.50
4910;DHT22;2470;49.868;8.660;2022-08-19T08:02:48;25.10;99.60
4910;DHT22;2470;49.868;8.660;2022-08-19T08:05:13;25.10;99.70
4910;DHT22;2470;49.868;8.660;2022-08-19T08:07:58;25.20;99.50
4910;DHT22;2470;49.868;8.660;2022-08-19T08:10:42;25.30;99.70
4910;DHT22;2470;49.868;8.660;2022-08-19T08:13:07;25.30;99.40
4910;DHT22;2470;49.868;8.660;2022-08-19T08:15:33;25.40;99.30
4910;DHT22;2470;49.868;8.660;2022-08-19T08:17:59;25.30;99.20
4910;DHT22;2470;49.868;8.660;2022-08-19T08:20:24;25.30;98.80
4910;DHT22;2470;49.868;8.660;2022-08-19T08:22:50;25.30;98.40
4910;DHT22;2470;49.868;8.660;2022-08-19T08:25:35;25.20;98.50
4910;DHT22;2470;49.868;8.660;2022-08-19T08:28:02;25.20;99.00
4910;DHT22;2470;49.868;8.660;2022-08-19T08:30:30;25.20;99.00
4910;DHT22;2470;49.868;8.660;2022-08-19T08:32:57;25.30;98.90
4910;DHT22;2470;49.868;8.660;2022-08-19T08:35:23;25.30;99.00
4910;DHT22;2470;49.868;8.660;2022-08-19T08:37:52;25.40;97.80
4910;DHT22;2470;49.868;8.660;2022-08-19T08:42:51;25.40;97.00
4910;DHT22;2470;49.868;8.660;2022-08-19T08:45:19;25.40;96.70
4910;DHT22;2470;49.868;8.660;2022-08-19T08:47:48;25.50;96.50
4910;DHT22;2470;49.868;8.660;2022-08-19T08:50:29;25.60;96.20
4910;DHT22;2470;49.868;8.660;2022-08-19T08:52:58;25.80;96.00
4910;DHT22;2470;49.868;8.660;2022-08-19T08:55:27;25.90;95.50
4910;DHT22;2470;49.868;8.660;2022-08-19T08:58:09;26.00;95.20
4910;DHT22;2470;49.868;8.660;2022-08-19T09:00:46;26.10;94.80
4910;DHT22;2470;49.868;8.660;2022-08-19T09:03:29;26.20;94.30
4910;DHT22;2470;49.868;8.660;2022-08-19T09:06:00;26.10;93.50
4910;DHT22;2470;49.868;8.660;2022-08-19T09:11:34;26.00;93.10
4910;DHT22;2470;49.868;8.660;2022-08-19T09:14:32;26.00;92.80
4910;DHT22;2470;49.868;8.660;2022-08-19T09:16:59;26.00;92.80
4910;DHT22;2470;49.868;8.660;2022-08-19T09:19:29;26.10;92.00
4910;DHT22;2470;49.868;8.660;2022-08-19T09:21:55;26.10;91.90
4910;DHT22;2470;49.868;8.660;2022-08-19T09:24:20;26.10;92.30
4910;DHT22;2470;49.868;8.660;2022-08-19T09:26:46;26.20;91.90
4910;DHT22;2470;49.868;8.660;2022-08-19T09:29:12;26.40;91.60
4910;DHT22;2470;49.868;8.660;2022-08-19T09:31:38;26.40;90.80
4910;DHT22;2470;49.868;8.660;2022-08-19T09:34:04;26.40;90.60
4910;DHT22;2470;49.868;8.660;2022-08-19T09:36:33;26.30;90.60
4910;DHT22;2470;49.868;8.660;2022-08-19T09:39:03;26.20;90.80
4910;DHT22;2470;49.868;8.660;2022-08-19T09:41:28;26.20;90.90
4910;DHT22;2470;49.868;8.660;2022-08-19T09:43:56;26.10;91.50
4910;DHT22;2470;49.868;8.660;2022-08-19T09:46:24;26.10;91.50
4910;DHT22;2470;49.868;8.660;2022-08-19T09:48:51;26.10;91.90
4910;DHT22;2470;49.868;8.660;2022-08-19T09:51:20;26.20;92.00
4910;DHT22;2470;49.868;8.660;2022-08-19T09:53:47;26.20;91.80
4910;DHT22;2470;49.868;8.660;2022-08-19T09:56:16;26.20;91.70
4910;DHT22;2470;49.868;8.660;2022-08-19T09:58:42;26.30;92.00
4910;DHT22;2470;49.868;8.660;2022-08-19T10:01:08;26.60;91.70
4910;DHT22;2470;49.868;8.660;2022-08-19T10:03:36;26.70;91.20
4910;DHT22;2470;49.868;8.660;2022-08-19T10:06:04;26.70;90.80
4910;DHT22;2470;49.868;8.660;2022-08-19T10:08:34;26.60;91.00
4910;DHT22;2470;49.868;8.660;2022-08-19T10:11:01;26.70;91.20
4910;DHT22;2470;49.868;8.660;2022-08-19T10:13:29;26.80;90.90
4910;DHT22;2470;49.868;8.660;2022-08-19T10:16:01;26.90;90.60
4910;DHT22;2470;49.868;8.660;2022-08-19T10:18:27;27.00;89.80
4910;DHT22;2470;49.868;8.660;2022-08-19T10:21:06;26.90;88.90
4910;DHT22;2470;49.868;8.660;2022-08-19T10:23:38;26.80;89.50
4910;DHT22;2470;49.868;8.660;2022-08-19T10:26:06;26.70;90.00
4910;DHT22;2470;49.868;8.660;2022-08-19T10:28:33;26.70;89.80
4910;DHT22;2470;49.868;8.660;2022-08-19T10:31:07;26.70;90.00
4910;DHT22;2470;49.868;8.660;2022-08-19T10:33:34;26.70;88.60
4910;DHT22;2470;49.868;8.660;2022-08-19T10:36:06;26.60;89.10
4910;DHT22;2470;49.868;8.660;2022-08-19T10:38:31;26.60;88.80
4910;DHT22;2470;49.868;8.660;2022-08-19T10:41:27;26.60;88.90
4910;DHT22;2470;49.868;8.660;2022-08-19T10:43:54;26.80;88.50
4910;DHT22;2470;49.868;8.660;2022-08-19T10:46:22;27.00;88.80
4910;DHT22;2470;49.868;8.660;2022-08-19T10:48:48;27.20;87.70
4910;DHT22;2470;49.868;8.660;2022-08-19T10:51:15;27.10;85.80
4910;DHT22;2470;49.868;8.660;2022-08-19T10:54:00;27.20;85.30
4910;DHT22;2470;49.868;8.660;2022-08-19T10:56:26;27.50;83.50
4910;DHT22;2470;49.868;8.660;2022-08-19T10:59:11;27.60;83.20
4910;DHT22;2470;49.868;8.660;2022-08-19T11:01:39;27.70;81.20
4910;DHT22;2470;49.868;8.660;2022-08-19T11:04:05;27.60;80.00
4910;DHT22;2470;49.868;8.660;2022-08-19T11:06:33;27.50;79.30
4910;DHT22;2470;49.868;8.660;2022-08-19T11:08:59;27.70;78.90
4910;DHT22;2470;49.868;8.660;2022-08-19T11:11:26;27.70;78.10
4910;DHT22;2470;49.868;8.660;2022-08-19T11:13:52;27.70;77.40
4910;DHT22;2470;49.868;8.660;2022-08-19T11:16:22;27.60;75.30
4910;DHT22;2470;49.868;8.660;2022-08-19T11:18:51;27.70;74.70
4910;DHT22;2470;49.868;8.660;2022-08-19T11:21:20;27.80;75.20
4910;DHT22;2470;49.868;8.660;2022-08-19T11:23:50;28.00;74.50
4910;DHT22;2470;49.868;8.660;2022-08-19T11:26:17;28.20;72.60
4910;DHT22;2470;49.868;8.660;2022-08-19T11:28:43;28.20;72.10
4910;DHT22;2470;49.868;8.660;2022-08-19T11:31:11;28.30;70.10
4910;DHT22;2470;49.868;8.660;2022-08-19T11:33:37;28.40;65.80
4910;DHT22;2470;49.868;8.660;2022-08-19T11:36:02;28.40;67.10
4910;DHT22;2470;49.868;8.660;2022-08-19T11:38:28;28.50;68.50
4910;DHT22;2470;49.868;8.660;2022-08-19T11:40:56;28.60;69.20
4910;DHT22;2470;49.868;8.660;2022-08-19T11:43:22;28.70;68.60
4910;DHT22;2470;49.868;8.660;2022-08-19T11:45:48;28.80;67.30
4910;DHT22;2470;49.868;8.660;2022-08-19T11:48:13;28.90;64.80
4910;DHT22;2470;49.868;8.660;2022-08-19T11:50:39;28.80;64.80
4910;DHT22;2470;49.868;8.660;2022-08-19T11:53:07;28.70;63.80
4910;DHT22;2470;49.868;8.660;2022-08-19T11:55:37;28.90;64.40
4910;DHT22;2470;49.868;8.660;2022-08-19T11:58:04;29.10;64.60
4910;DHT22;2470;49.868;8.660;2022-08-19T12:00:32;29.20;63.90
4910;DHT22;2470;49.868;8.660;2022-08-19T12:02:58;29.30;63.70
4910;DHT22;2470;49.868;8.660;2022-08-19T12:05:24;29.30;64.20
4910;DHT22;2470;49.868;8.660;2022-08-19T12:07:49;29.40;62.70
4910;DHT22;2470;49.868;8.660;2022-08-19T12:10:15;29.40;62.50
4910;DHT22;2470;49.868;8.660;2022-08-19T12:12:40;29.30;63.40
4910;DHT22;2470;49.868;8.660;2022-08-19T12:15:08;29.30;61.60
4910;DHT22;2470;49.868;8.660;2022-08-19T12:17:36;29.30;60.80
4910;DHT22;2470;49.868;8.660;2022-08-19T12:20:02;29.10;61.10
4910;DHT22;2470;49.868;8.660;2022-08-19T12:22:28;29.20;62.40
4910;DHT22;2470;49.868;8.660;2022-08-19T12:24:53;29.30;62.40
4910;DHT22;2470;49.868;8.660;2022-08-19T12:27:20;29.50;61.60
4910;DHT22;2470;49.868;8.660;2022-08-19T12:29:45;29.70;59.40
4910;DHT22;2470;49.868;8.660;2022-08-19T12:32:11;30.00;58.20
4910;DHT22;2470;49.868;8.660;2022-08-19T12:34:37;30.30;57.10
4910;DHT22;2470;49.868;8.660;2022-08-19T12:37:04;30.60;56.20
4910;DHT22;2470;49.868;8.660;2022-08-19T12:39:37;31.20;55.20
4910;DHT22;2470;49.868;8.660;2022-08-19T12:42:03;31.90;55.40
4910;DHT22;2470;49.868;8.660;2022-08-19T12:44:29;33.00;54.40
4910;DHT22;2470;49.868;8.660;2022-08-19T12:46:56;34.60;52.10
4910;DHT22;2470;49.868;8.660;2022-08-19T12:49:22;36.10;46.70
4910;DHT22;2470;49.868;8.660;2022-08-19T12:51:47;37.20;44.20
4910;DHT22;2470;49.868;8.660;2022-08-19T12:54:13;38.00;42.70
4910;DHT22;2470;49.868;8.660;2022-08-19T12:56:40;39.20;40.50
4910;DHT22;2470;49.868;8.660;2022-08-19T12:59:07;40.20;39.50
4910;DHT22;2470;49.868;8.660;2022-08-19T13:01:34;41.60;37.30
4910;DHT22;2470;49.868;8.660;2022-08-19T13:03:59;42.70;36.50
4910;DHT22;2470;49.868;8.660;2022-08-19T13:06:26;43.80;35.00
4910;DHT22;2470;49.868;8.660;2022-08-19T13:08:51;44.40;33.60
4910;DHT22;2470;49.868;8.660;2022-08-19T13:11:19;45.30;31.70
4910;DHT22;2470;49.868;8.660;2022-08-19T13:13:48;45.60;30.00
4910;DHT22;2470;49.868;8.660;2022-08-19T13:16:14;46.20;30.50
4910;DHT22;2470;49.868;8.660;2022-08-19T13:18:41;46.90;29.70
4910;DHT22;2470;49.868;8.660;2022-08-19T13:21:09;46.70;29.00
4910;DHT22;2470;49.868;8.660;2022-08-19T13:23:36;47.40;28.70
4910;DHT22;2470;49.868;8.660;2022-08-19T13:26:04;48.10;28.20
4910;DHT22;2470;49.868;8.660;2022-08-19T13:28:31;48.60;28.00
4910;DHT22;2470;49.868;8.660;2022-08-19T13:31:22;49.10;28.20
4910;DHT22;2470;49.868;8.660;2022-08-19T13:34:07;49.20;27.20
4910;DHT22;2470;49.868;8.660;2022-08-19T13:36:34;46.10;28.20
4910;DHT22;2470;49.868;8.660;2022-08-19T13:39:00;44.10;29.50
4910;DHT22;2470;49.868;8.660;2022-08-19T13:41:26;41.90;29.90
4910;DHT22;2470;49.868;8.660;2022-08-19T13:43:52;39.60;31.80
4910;DHT22;2470;49.868;8.660;2022-08-19T13:46:19;37.80;33.10
4910;DHT22;2470;49.868;8.660;2022-08-19T13:48:46;36.30;34.90
4910;DHT22;2470;49.868;8.660;2022-08-19T13:51:11;36.60;36.20
4910;DHT22;2470;49.868;8.660;2022-08-19T13:53:38;39.30;33.90
4910;DHT22;2470;49.868;8.660;2022-08-19T13:56:12;41.90;31.80
4910;DHT22;2470;49.868;8.660;2022-08-19T13:58:38;44.40;30.00
4910;DHT22;2470;49.868;8.660;2022-08-19T14:01:04;46.30;29.00
4910;DHT22;2470;49.868;8.660;2022-08-19T14:03:32;47.10;27.70
4910;DHT22;2470;49.868;8.660;2022-08-19T14:05:58;47.00;27.20
4910;DHT22;2470;49.868;8.660;2022-08-19T14:08:25;46.80;28.00
4910;DHT22;2470;49.868;8.660;2022-08-19T14:10:50;47.50;27.80
4910;DHT22;2470;49.868;8.660;2022-08-19T14:13:19;48.10;27.10
4910;DHT22;2470;49.868;8.660;2022-08-19T14:15:45;48.20;26.60
4910;DHT22;2470;49.868;8.660;2022-08-19T14:18:13;48.30;26.20
4910;DHT22;2470;49.868;8.660;2022-08-19T14:20:39;48.50;26.10
4910;DHT22;2470;49.868;8.660;2022-08-19T14:23:04;48.80;25.80
4910;DHT22;2470;49.868;8.660;2022-08-19T14:25:31;49.20;25.90
4910;DHT22;2470;49.868;8.660;2022-08-19T14:27:58;49.60;25.70
4910;DHT22;2470;49.868;8.660;2022-08-19T14:30:29;49.90;25.90
4910;DHT22;2470;49.868;8.660;2022-08-19T14:32:56;49.90;25.60
4910;DHT22;2470;49.868;8.660;2022-08-19T14:35:23;49.60;25.30
4910;DHT22;2470;49.868;8.660;2022-08-19T14:37:50;49.10;25.00
4910;DHT22;2470;49.868;8.660;2022-08-19T14:40:18;48.50;25.40
4910;DHT22;2470;49.868;8.660;2022-08-19T14:42:46;47.50;25.40
4910;DHT22;2470;49.868;8.660;2022-08-19T14:45:12;45.70;26.10
4910;DHT22;2470;49.868;8.660;2022-08-19T14:47:38;43.90;27.20
4910;DHT22;2470;49.868;8.660;2022-08-19T14:50:07;42.40;28.00
4910;DHT22;2470;49.868;8.660;2022-08-19T14:52:32;41.00;29.00
4910;DHT22;2470;49.868;8.660;2022-08-19T14:54:58;40.80;29.90
4910;DHT22;2470;49.868;8.660;2022-08-19T14:57:24;41.70;29.40
4910;DHT22;2470;49.868;8.660;2022-08-19T14:59:49;42.70;28.60
4910;DHT22;2470;49.868;8.660;2022-08-19T15:02:15;43.60;28.00
4910;DHT22;2470;49.868;8.660;2022-08-19T15:04:40;44.40;27.40
4910;DHT22;2470;49.868;8.660;2022-08-19T15:07:06;44.80;27.30
4910;DHT22;2470;49.868;8.660;2022-08-19T15:09:32;44.70;27.30
4910;DHT22;2470;49.868;8.660;2022-08-19T15:11:58;44.20;26.90
4910;DHT22;2470;49.868;8.660;2022-08-19T15:14:27;43.60;27.10
4910;DHT22;2470;49.868;8.660;2022-08-19T15:16:58;42.90;27.60
4910;DHT22;2470;49.868;8.660;2022-08-19T15:19:24;41.80;27.70
4910;DHT22;2470;49.868;8.660;2022-08-19T15:21:49;40.60;28.50
4910;DHT22;2470;49.868;8.660;2022-08-19T15:24:15;39.30;29.40
4910;DHT22;2470;49.868;8.660;2022-08-19T15:26:41;38.00;30.30
4910;DHT22;2470;49.868;8.660;2022-08-19T15:29:08;36.90;31.90
4910;DHT22;2470;49.868;8.660;2022-08-19T15:31:33;36.00;33.20
4910;DHT22;2470;49.868;8.660;2022-08-19T15:34:02;35.40;33.40
4910;DHT22;2470;49.868;8.660;2022-08-19T15:36:28;34.80;34.10
4910;DHT22;2470;49.868;8.660;2022-08-19T15:38:54;34.40;34.70
4910;DHT22;2470;49.868;8.660;2022-08-19T15:41:24;34.00;35.10
4910;DHT22;2470;49.868;8.660;2022-08-19T15:44:01;33.60;34.90
4910;DHT22;2470;49.868;8.660;2022-08-19T15:46:35;33.30;35.50
4910;DHT22;2470;49.868;8.660;2022-08-19T15:49:01;33.00;36.40
4910;DHT22;2470;49.868;8.660;2022-08-19T15:51:29;32.80;37.00
4910;DHT22;2470;49.868;8.660;2022-08-19T15:53:57;32.60;36.30
4910;DHT22;2470;49.868;8.660;2022-08-19T15:56:22;32.40;36.00
4910;DHT22;2470;49.868;8.660;2022-08-19T15:58:48;32.20;36.80
4910;DHT22;2470;49.868;8.660;2022-08-19T16:01:32;32.20;37.00
4910;DHT22;2470;49.868;8.660;2022-08-19T16:03:59;32.10;37.00
4910;DHT22;2470;49.868;8.660;2022-08-19T16:09:13;31.80;37.80
4910;DHT22;2470;49.868;8.660;2022-08-19T16:11:39;31.60;38.20
4910;DHT22;2470;49.868;8.660;2022-08-19T16:14:07;31.60;38.60
4910;DHT22;2470;49.868;8.660;2022-08-19T16:16:34;31.50;39.00